Time;durP1;ratioP1;P1;durP2;ratioP2;P2;SDS_P1;SDS_P2;PMS_P1;PMS_P2;Temp;Humidity;BMP_temperature;BMP_pressure;BME280_temperature;BME280_humidity;BME280_pressure;Samples;Min_cycle;Max_cycle;Signal;HPM_P1;HPM_P2
2023/10/23 00:04:52;;;;;;;3.90;2.90;;;14.00;97.00;;;;;;10408472;28;20407;-67
2023/10/23 00:09:53;;;;;;;4.60;3.03;;;14.00;97.00;;;;;;10396982;28;20412;-67
2023/10/23 00:14:53;;;;;;;3.42;2.70;;;14.00;97.00;;;;;;10398484;28;20488;-67
2023/10/23 00:19:54;;;;;;;4.50;2.90;;;14.00;97.00;;;;;;10403242;28;20841;-67
2023/10/23 00:24:55;;;;;;;3.07;2.67;;;13.90;97.00;;;;;;10397556;28;20912;-67
2023/10/23 00:29:55;;;;;;;4.17;2.93;;;13.90;96.90;;;;;;10401605;28;20961;-67
2023/10/23 00:34:56;;;;;;;3.80;2.67;;;13.90;96.90;;;;;;10401923;28;20961;-67
2023/10/23 00:39:56;;;;;;;4.13;2.90;;;13.90;96.90;;;;;;10400887;28;20743;-67
2023/10/23 00:44:57;;;;;;;3.40;2.70;;;13.90;97.10;;;;;;10416923;28;20838;-67
2023/10/23 00:50:00;;;;;;;3.50;2.40;;;13.90;96.80;;;;;;10404495;28;20416;-66
2023/10/23 00:55:01;;;;;;;3.73;2.63;;;13.90;96.80;;;;;;10421007;28;20490;-67
2023/10/23 01:00:04;;;;;;;4.47;2.80;;;13.80;96.70;;;;;;10401432;28;20916;-66
2023/10/23 01:05:05;;;;;;;4.22;2.80;;;13.80;96.70;;;;;;10409840;28;20918;-66
2023/10/23 01:10:06;;;;;;;3.83;2.80;;;13.80;96.70;;;;;;10403897;28;20417;-67
2023/10/23 01:15:07;;;;;;;4.15;2.70;;;13.80;96.70;;;;;;10432998;28;20418;-67
2023/10/23 01:20:09;;;;;;;3.60;2.40;;;13.80;96.60;;;;;;10415398;28;20916;-66
2023/10/23 01:25:13;;;;;;;2.83;2.53;;;13.80;96.60;;;;;;10393997;28;20489;-67
2023/10/23 01:30:14;;;;;;;3.95;2.65;;;13.70;96.60;;;;;;10403935;28;20787;-66
2023/10/23 01:35:14;;;;;;;3.73;2.70;;;13.70;96.60;;;;;;10404419;28;20417;-67
2023/10/23 01:40:15;;;;;;;3.50;2.30;;;13.70;96.60;;;;;;10401656;28;20421;-67
2023/10/23 01:45:16;;;;;;;3.00;2.57;;;13.70;96.50;;;;;;10400610;28;20422;-66
2023/10/23 01:50:16;;;;;;;3.67;2.50;;;13.70;96.50;;;;;;10405905;28;20424;-67
2023/10/23 01:55:17;;;;;;;2.70;2.30;;;13.70;96.50;;;;;;10405439;28;20825;-66
2023/10/23 02:00:18;;;;;;;3.58;2.50;;;13.60;96.40;;;;;;10398788;28;20814;-67
2023/10/23 02:05:18;;;;;;;3.37;2.40;;;13.60;96.40;;;;;;10399687;28;20403;-66
2023/10/23 02:10:19;;;;;;;3.78;2.67;;;13.60;96.30;;;;;;10407074;28;20412;-67
2023/10/23 02:15:19;;;;;;;3.43;2.70;;;13.60;96.30;;;;;;10400435;28;20404;-67
2023/10/23 02:20:22;;;;;;;2.57;2.30;;;13.60;96.30;;;;;;10396663;28;20412;-67
2023/10/23 02:25:22;;;;;;;2.85;2.50;;;13.60;96.30;;;;;;10405209;28;20419;-66
2023/10/23 02:30:23;;;;;;;2.63;2.40;;;13.50;96.20;;;;;;10402971;28;20466;-67
2023/10/23 02:35:24;;;;;;;3.22;2.55;;;13.50;96.20;;;;;;10407358;28;20481;-67
2023/10/23 02:40:24;;;;;;;3.13;2.47;;;13.50;96.10;;;;;;10414240;28;20922;-67
2023/10/23 02:45:25;;;;;;;3.97;2.70;;;13.50;96.10;;;;;;10412636;28;20458;-66
2023/10/23 02:50:26;;;;;;;2.90;2.60;;;13.50;96.10;;;;;;10413600;28;20430;-67
2023/10/23 02:55:26;;;;;;;3.83;2.80;;;13.50;96.10;;;;;;10403437;28;20408;-67
2023/10/23 03:00:27;;;;;;;3.23;2.33;;;13.50;96.10;;;;;;10409132;28;20517;-67
2023/10/23 03:05:28;;;;;;;3.23;2.50;;;13.50;96.10;;;;;;10416035;28;20419;-67
2023/10/23 03:10:29;;;;;;;3.50;2.83;;;13.40;96.10;;;;;;10413089;28;20768;-66
2023/10/23 03:15:29;;;;;;;4.82;2.97;;;13.40;96.10;;;;;;10406367;28;20416;-67
2023/10/23 03:20:30;;;;;;;3.40;2.60;;;13.40;96.10;;;;;;10414131;28;20415;-67
2023/10/23 03:25:31;;;;;;;3.60;2.78;;;13.40;96.10;;;;;;10428645;28;20666;-67
2023/10/23 03:30:31;;;;;;;3.03;2.67;;;13.40;96.10;;;;;;10410906;28;21000;-67
2023/10/23 03:35:33;;;;;;;3.60;2.50;;;13.40;96.10;;;;;;10412554;28;20447;-67
2023/10/23 03:40:34;;;;;;;2.95;2.65;;;13.40;96.10;;;;;;10408604;28;20402;-67
2023/10/23 03:45:36;;;;;;;2.97;2.55;;;13.30;96.10;;;;;;10411825;28;20481;-68
2023/10/23 03:50:37;;;;;;;3.37;2.83;;;13.30;96.10;;;;;;10416802;28;20417;-68
2023/10/23 03:55:38;;;;;;;3.35;2.90;;;13.30;96.10;;;;;;10412864;28;20893;-67
2023/10/23 04:00:38;;;;;;;3.45;2.42;;;13.30;96.10;;;;;;10409154;28;20416;-67
2023/10/23 04:05:40;;;;;;;3.17;2.63;;;13.30;96.10;;;;;;10408019;28;20916;-66
2023/10/23 04:10:47;;;;;;;3.97;2.72;;;13.30;96.40;;;;;;10406483;28;20897;-67
2023/10/23 04:15:57;;;;;;;4.10;2.90;;;13.30;96.10;;;;;;10405636;28;20399;-67
2023/10/23 04:21:05;;;;;;;3.72;2.78;;;13.30;96.10;;;;;;10404641;28;20403;-67
2023/10/23 04:26:07;;;;;;;3.58;2.50;;;13.30;96.00;;;;;;10405140;28;20410;-67
2023/10/23 04:31:07;;;;;;;2.83;2.57;;;13.30;96.00;;;;;;10410681;28;20461;-67
2023/10/23 04:36:08;;;;;;;3.55;2.88;;;13.20;95.90;;;;;;10418458;28;20399;-67
2023/10/23 04:41:08;;;;;;;3.70;2.90;;;13.60;96.00;;;;;;10413049;28;20391;-66
2023/10/23 04:46:09;;;;;;;2.90;2.60;;;13.20;95.90;;;;;;10410760;28;20794;-67
2023/10/23 04:51:09;;;;;;;3.15;2.47;;;13.20;95.90;;;;;;10432000;28;20920;-67
2023/10/23 04:56:10;;;;;;;3.73;2.60;;;13.50;95.90;;;;;;10412881;28;20874;-67
2023/10/23 05:01:18;;;;;;;3.73;2.80;;;13.10;95.90;;;;;;10418429;28;20883;-67
2023/10/23 05:06:25;;;;;;;3.30;2.60;;;13.10;95.90;;;;;;10414643;28;20494;-67
2023/10/23 05:11:25;;;;;;;3.30;2.80;;;13.10;95.90;;;;;;10416827;28;20785;-67
2023/10/23 05:16:26;;;;;;;3.17;2.60;;;13.10;95.90;;;;;;10395462;28;20759;-67
2023/10/23 05:21:26;;;;;;;2.63;2.33;;;13.10;95.90;;;;;;10403122;28;20418;-66
2023/10/23 05:26:27;;;;;;;5.23;2.63;;;13.30;95.90;;;;;;10420448;28;20869;-67
2023/10/23 05:31:27;;;;;;;3.75;2.50;;;13.10;95.90;;;;;;10407524;28;21050;-67
2023/10/23 05:36:28;;;;;;;5.00;2.63;;;13.50;96.00;;;;;;10392581;28;20838;-67
2023/10/23 05:41:29;;;;;;;4.33;2.70;;;13.10;95.90;;;;;;10396540;28;21638;-67
2023/10/23 05:46:29;;;;;;;3.53;2.67;;;13.10;95.90;;;;;;10397940;28;21095;-67
2023/10/23 05:51:30;;;;;;;3.17;2.70;;;13.00;95.80;;;;;;10393290;28;20417;-67
2023/10/23 05:56:32;;;;;;;4.10;2.78;;;13.00;95.80;;;;;;10397846;28;20767;-67
2023/10/23 06:01:32;;;;;;;3.83;3.00;;;13.00;95.80;;;;;;10398019;28;20418;-67
2023/10/23 06:06:33;;;;;;;3.87;3.10;;;13.00;95.80;;;;;;10389422;28;20415;-66
2023/10/23 06:11:34;;;;;;;4.07;3.37;;;13.00;95.80;;;;;;10393247;28;20422;-68
2023/10/23 06:16:34;;;;;;;4.05;3.25;;;13.00;95.70;;;;;;10389983;28;20768;-67
2023/10/23 06:21:35;;;;;;;6.60;3.53;;;13.00;95.70;;;;;;10399896;28;20983;-66
2023/10/23 06:26:35;;;;;;;3.77;3.17;;;13.00;95.90;;;;;;10396927;28;20500;-66
2023/10/23 06:31:36;;;;;;;5.38;3.50;;;13.00;95.90;;;;;;10398874;28;20426;-66
2023/10/23 06:36:40;;;;;;;4.23;3.30;;;13.00;96.00;;;;;;10406219;28;20393;-67
2023/10/23 06:41:40;;;;;;;4.53;3.43;;;13.00;95.90;;;;;;10404064;28;20412;-67
2023/10/23 06:46:41;;;;;;;5.30;3.40;;;13.00;95.90;;;;;;10402876;28;20956;-67
2023/10/23 06:51:41;;;;;;;4.33;3.30;;;13.00;95.90;;;;;;10434261;28;20423;-66
2023/10/23 06:56:42;;;;;;;4.03;3.10;;;13.00;95.80;;;;;;10406392;28;20831;-66
2023/10/23 07:01:43;;;;;;;4.15;3.33;;;12.90;95.70;;;;;;10406317;28;20413;-65
2023/10/23 07:06:43;;;;;;;4.93;3.20;;;12.90;95.70;;;;;;10398000;28;20856;-66
2023/10/23 07:11:50;;;;;;;4.40;3.30;;;12.90;95.60;;;;;;10405744;28;20422;-66
2023/10/23 07:16:51;;;;;;;4.40;3.45;;;12.90;95.60;;;;;;10396248;28;20927;-66
2023/10/23 07:21:51;;;;;;;4.50;3.20;;;12.90;95.50;;;;;;10407275;28;20416;-66
2023/10/23 07:26:52;;;;;;;4.97;3.30;;;12.90;95.50;;;;;;10404705;28;20494;-65
2023/10/23 07:31:52;;;;;;;4.40;2.90;;;12.90;95.40;;;;;;10410398;28;20419;-66
2023/10/23 07:36:53;;;;;;;4.73;3.10;;;13.20;95.50;;;;;;10408921;28;20769;-65
2023/10/23 07:41:53;;;;;;;3.75;3.17;;;12.90;95.40;;;;;;10407452;28;21026;-65
2023/10/23 07:46:54;;;;;;;3.33;3.00;;;13.30;95.60;;;;;;10421760;28;20433;-65
2023/10/23 07:51:54;;;;;;;4.87;3.13;;;12.90;95.50;;;;;;10422584;28;20789;-66
2023/10/23 07:56:55;;;;;;;4.25;3.25;;;13.10;95.60;;;;;;10407279;28;20402;-66
2023/10/23 08:01:56;;;;;;;4.63;3.40;;;13.00;95.60;;;;;;10403045;28;20499;-67
2023/10/23 08:06:56;;;;;;;4.22;3.60;;;13.00;95.70;;;;;;10404167;28;20399;-66
2023/10/23 08:11:57;;;;;;;4.73;3.30;;;13.40;95.90;;;;;;10409968;28;20407;-66
2023/10/23 08:16:57;;;;;;;3.80;3.27;;;13.00;95.80;;;;;;10411350;28;20830;-68
2023/10/23 08:21:58;;;;;;;4.22;3.40;;;13.00;96.00;;;;;;10407144;28;20975;-67
2023/10/23 08:26:59;;;;;;;7.63;4.70;;;13.00;96.10;;;;;;10406754;28;20403;-70
2023/10/23 08:31:59;;;;;;;8.33;6.10;;;13.10;96.60;;;;;;10412348;28;20774;-66
2023/10/23 08:37:00;;;;;;;8.70;6.10;;;12.80;97.60;;;;;;10408651;28;20472;-65
2023/10/23 08:42:01;;;;;;;7.07;5.47;;;12.90;97.90;;;;;;10410450;28;20391;-65
2023/10/23 08:47:02;;;;;;;6.60;5.30;;;12.90;97.70;;;;;;10411457;28;20417;-65
2023/10/23 08:52:09;;;;;;;7.13;5.07;;;12.90;97.50;;;;;;10411478;28;20409;-65
2023/10/23 08:57:11;;;;;;;8.18;6.47;;;13.00;97.40;;;;;;10433140;28;20403;-68
2023/10/23 09:02:12;;;;;;;9.93;7.55;;;13.00;97.80;;;;;;10404335;28;20411;-68
2023/10/23 09:07:13;;;;;;;10.82;8.23;;;12.90;98.80;;;;;;10416755;28;20406;-68
2023/10/23 09:12:31;;;;;;;11.43;8.67;;;12.80;99.50;;;;;;10413446;28;20427;-68
2023/10/23 09:17:32;;;;;;;12.85;8.77;;;12.70;99.90;;;;;;10410715;28;20402;-68
2023/10/23 09:22:35;;;;;;;12.93;8.52;;;12.70;99.90;;;;;;10404581;28;20409;-68
2023/10/23 09:27:35;;;;;;;14.57;9.03;;;12.50;99.90;;;;;;10404756;28;20531;-68
2023/10/23 09:32:40;;;;;;;15.07;8.45;;;12.50;99.90;;;;;;10404151;28;20592;-67
2023/10/23 09:37:40;;;;;;;11.82;8.32;;;12.50;99.90;;;;;;10415634;28;20425;-68
2023/10/23 09:42:41;;;;;;;12.33;8.23;;;12.50;99.90;;;;;;10395558;28;20428;-67
2023/10/23 09:47:42;;;;;;;12.35;8.43;;;12.40;99.90;;;;;;10395820;28;20418;-67
2023/10/23 09:52:44;;;;;;;12.60;9.10;;;13.20;99.90;;;;;;10404065;28;20904;-67
2023/10/23 09:57:52;;;;;;;12.02;8.50;;;12.50;99.90;;;;;;10401257;28;20406;-67
2023/10/23 10:02:54;;;;;;;12.93;9.25;;;12.40;99.90;;;;;;10404110;28;20398;-67
2023/10/23 10:08:08;;;;;;;15.77;9.93;;;12.40;99.90;;;;;;10392315;28;20425;-68
2023/10/23 10:13:11;;;;;;;14.07;9.70;;;12.50;99.90;;;;;;10403598;28;20407;-68
2023/10/23 10:18:16;;;;;;;16.70;10.13;;;12.80;99.90;;;;;;10400760;28;20410;-68
2023/10/23 10:23:17;;;;;;;15.40;9.85;;;12.60;99.90;;;;;;10399866;28;20407;-67
2023/10/23 10:28:18;;;;;;;14.53;9.90;;;12.70;99.90;;;;;;10390670;28;20474;-68
2023/10/23 10:33:22;;;;;;;15.05;9.70;;;12.70;99.90;;;;;;10403682;28;20529;-68
2023/10/23 10:38:24;;;;;;;15.63;10.60;;;13.50;99.90;;;;;;10397415;28;21025;-68
2023/10/23 10:43:30;;;;;;;16.17;9.93;;;12.80;99.90;;;;;;10407401;28;20414;-68
2023/10/23 10:48:45;;;;;;;16.23;10.55;;;12.80;99.90;;;;;;10408261;28;20418;-68
2023/10/23 10:53:46;;;;;;;17.02;11.27;;;12.90;99.90;;;;;;10409917;28;20469;-68
2023/10/23 10:58:47;;;;;;;15.37;10.27;;;12.80;99.90;;;;;;10410101;28;20414;-68
2023/10/23 11:03:47;;;;;;;17.07;11.10;;;12.80;99.90;;;;;;10415160;28;20469;-68
2023/10/23 11:08:50;;;;;;;17.00;11.23;;;12.80;99.90;;;;;;10420728;28;20410;-67
2023/10/23 11:13:52;;;;;;;18.67;11.88;;;13.00;99.90;;;;;;10403324;28;20418;-67
2023/10/23 11:18:52;;;;;;;19.25;11.30;;;12.80;99.90;;;;;;10421815;28;20421;-67
2023/10/23 11:23:56;;;;;;;19.50;11.87;;;12.90;99.90;;;;;;10403746;28;20414;-69
2023/10/23 11:28:56;;;;;;;23.63;13.57;;;12.80;99.90;;;;;;10406437;28;20400;-68
2023/10/23 11:33:58;;;;;;;26.77;13.87;;;12.80;99.90;;;;;;10407317;28;20427;-69
2023/10/23 11:38:59;;;;;;;24.90;14.73;;;13.10;99.90;;;;;;10419243;28;20416;-69
2023/10/23 11:44:00;;;;;;;25.80;14.17;;;12.80;99.90;;;;;;10405482;28;20917;-68
2023/10/23 11:49:01;;;;;;;25.83;14.43;;;12.80;99.90;;;;;;10404551;28;20409;-68
2023/10/23 11:54:03;;;;;;;26.30;14.03;;;12.90;99.90;;;;;;10404905;28;20441;-69
2023/10/23 11:59:04;;;;;;;28.55;14.75;;;13.00;99.90;;;;;;10405632;28;20408;-71
2023/10/23 12:04:06;;;;;;;26.42;14.43;;;13.00;99.90;;;;;;10401940;28;20413;-70
2023/10/23 12:09:07;;;;;;;24.73;14.38;;;13.00;99.90;;;;;;10406516;28;20469;-69
2023/10/23 12:14:08;;;;;;;24.10;14.20;;;13.00;99.90;;;;;;10402154;28;20976;-68
2023/10/23 12:19:09;;;;;;;22.33;13.60;;;13.10;99.90;;;;;;10402668;28;20408;-68
2023/10/23 12:24:09;;;;;;;21.80;12.70;;;13.20;99.90;;;;;;10402101;28;20402;-68
2023/10/23 12:29:12;;;;;;;20.45;12.27;;;13.30;99.90;;;;;;10394237;28;20408;-70
2023/10/23 12:34:13;;;;;;;25.67;13.60;;;13.30;99.90;;;;;;10404047;28;20772;-70
2023/10/23 12:39:13;;;;;;;24.08;14.35;;;13.40;99.90;;;;;;10415550;28;20902;-70
2023/10/23 12:44:14;;;;;;;20.63;12.20;;;13.30;99.90;;;;;;10408663;28;20405;-70
2023/10/23 12:49:15;;;;;;;20.37;12.27;;;13.30;99.90;;;;;;10407611;28;20420;-70
2023/10/23 12:54:15;;;;;;;20.73;12.20;;;13.40;99.90;;;;;;10405182;28;20431;-69
2023/10/23 12:59:16;;;;;;;19.20;11.20;;;13.50;99.90;;;;;;10399413;28;20846;-69
2023/10/23 13:04:21;;;;;;;20.30;11.77;;;13.50;99.90;;;;;;10405105;28;20451;-69
2023/10/23 13:09:25;;;;;;;19.60;11.57;;;13.60;99.90;;;;;;10402931;28;20476;-71
2023/10/23 13:14:26;;;;;;;18.35;10.68;;;13.60;99.90;;;;;;10406228;28;20442;-70
2023/10/23 13:19:26;;;;;;;18.58;10.48;;;14.30;99.90;;;;;;10408484;28;20414;-71
2023/10/23 13:24:27;;;;;;;18.20;10.87;;;13.70;99.90;;;;;;10401957;28;20508;-70
2023/10/23 13:29:32;;;;;;;15.47;10.13;;;13.70;99.90;;;;;;10405854;28;20409;-71
2023/10/23 13:34:32;;;;;;;15.13;9.50;;;14.00;99.90;;;;;;10404440;28;20401;-71
2023/10/23 13:39:33;;;;;;;16.73;10.10;;;13.80;99.90;;;;;;10404248;28;20401;-71
2023/10/23 13:44:34;;;;;;;17.67;9.93;;;13.80;99.90;;;;;;10404614;28;20421;-70
2023/10/23 13:49:34;;;;;;;21.50;13.13;;;14.40;99.90;;;;;;10406729;28;20417;-72
2023/10/23 13:54:35;;;;;;;23.10;12.80;;;13.70;99.90;;;;;;10408188;28;20490;-71
2023/10/23 13:59:36;;;;;;;23.17;13.35;;;13.90;99.90;;;;;;10404089;28;20434;-71
2023/10/23 14:04:36;;;;;;;20.67;13.00;;;13.50;99.90;;;;;;10404111;28;20411;-71
2023/10/23 14:09:37;;;;;;;23.38;13.50;;;13.30;99.90;;;;;;10400223;28;20485;-71
2023/10/23 14:14:38;;;;;;;22.97;13.30;;;13.90;99.90;;;;;;10400747;28;20403;-71
2023/10/23 14:19:38;;;;;;;18.57;12.00;;;13.20;99.90;;;;;;10417578;28;20418;-71
2023/10/23 14:24:39;;;;;;;21.35;12.63;;;13.10;99.90;;;;;;10415231;28;20940;-71
2023/10/23 14:29:40;;;;;;;23.50;14.57;;;13.00;99.90;;;;;;10414253;28;20418;-71
2023/10/23 14:34:40;;;;;;;22.92;14.43;;;13.00;99.90;;;;;;10410380;28;20982;-70
2023/10/23 14:39:41;;;;;;;27.30;15.77;;;13.00;99.90;;;;;;10417003;28;20716;-71
2023/10/23 14:44:42;;;;;;;30.93;17.43;;;12.90;99.90;;;;;;10411312;28;20412;-72
2023/10/23 14:49:43;;;;;;;36.10;18.48;;;12.90;99.90;;;;;;10411954;28;20425;-72
2023/10/23 14:54:43;;;;;;;29.77;17.33;;;13.40;99.90;;;;;;10414754;28;20404;-73
2023/10/23 14:59:44;;;;;;;32.63;16.90;;;12.90;99.90;;;;;;10404836;28;20496;-72
2023/10/23 15:04:44;;;;;;;28.90;16.57;;;12.90;99.90;;;;;;10414539;28;20409;-73
2023/10/23 15:09:45;;;;;;;22.53;13.87;;;13.10;99.90;;;;;;10421373;28;20467;-72
2023/10/23 15:14:45;;;;;;;25.77;15.00;;;13.20;99.90;;;;;;10420562;28;20436;-73
2023/10/23 15:19:47;;;;;;;24.57;14.70;;;12.70;99.90;;;;;;10436966;28;21013;-72
2023/10/23 15:24:47;;;;;;;23.40;14.18;;;12.60;99.90;;;;;;10402490;28;20450;-72
2023/10/23 15:29:49;;;;;;;25.87;15.23;;;12.60;99.90;;;;;;10416284;28;20470;-72
2023/10/23 15:34:49;;;;;;;26.15;15.57;;;12.90;99.90;;;;;;10400143;28;20878;-72
2023/10/23 15:39:50;;;;;;;27.23;16.43;;;12.50;99.90;;;;;;10408925;28;20411;-72
2023/10/23 15:44:50;;;;;;;29.87;17.60;;;12.30;99.90;;;;;;10400988;28;20399;-72
2023/10/23 15:49:51;;;;;;;30.67;17.80;;;12.50;99.90;;;;;;10403640;28;20415;-72
2023/10/23 15:54:52;;;;;;;31.97;18.37;;;12.20;99.90;;;;;;10434996;28;20403;-73
2023/10/23 15:59:52;;;;;;;33.90;18.88;;;12.20;99.90;;;;;;10402961;28;20412;-71
2023/10/23 16:04:54;;;;;;;32.93;18.47;;;12.20;99.90;;;;;;10402597;28;20422;-72
2023/10/23 16:09:54;;;;;;;34.38;18.27;;;12.10;99.90;;;;;;10400129;28;20509;-71
2023/10/23 16:14:55;;;;;;;34.50;18.40;;;12.10;99.90;;;;;;10407679;28;20395;-73
2023/10/23 16:19:55;;;;;;;37.37;18.30;;;12.30;99.90;;;;;;10416942;28;20410;-71
2023/10/23 16:24:56;;;;;;;32.53;17.20;;;12.00;99.90;;;;;;10392940;28;20498;-67
2023/10/23 16:29:57;;;;;;;33.97;18.53;;;11.90;99.90;;;;;;10395075;28;20512;-67
2023/10/23 16:34:58;;;;;;;33.40;17.85;;;12.10;99.90;;;;;;10402043;28;20434;-66
2023/10/23 16:39:59;;;;;;;28.55;15.80;;;12.40;99.90;;;;;;10406194;28;20494;-66
2023/10/23 16:45:00;;;;;;;26.92;15.85;;;12.60;99.90;;;;;;10399961;28;20403;-66
2023/10/23 16:50:00;;;;;;;29.20;15.33;;;12.80;99.90;;;;;;10404051;28;20465;-66
2023/10/23 16:55:02;;;;;;;25.30;14.80;;;13.00;99.90;;;;;;10397645;28;20794;-66
2023/10/23 17:00:05;;;;;;;24.77;14.00;;;13.10;99.90;;;;;;10405712;28;20422;-66
2023/10/23 17:05:06;;;;;;;26.37;14.33;;;13.20;99.90;;;;;;10407061;28;20717;-67
2023/10/23 17:10:07;;;;;;;24.10;14.10;;;13.30;99.90;;;;;;10401060;28;20415;-67
2023/10/23 17:15:08;;;;;;;23.97;13.83;;;13.30;99.90;;;;;;10414536;28;20397;-67
2023/10/23 17:20:10;;;;;;;25.02;13.50;;;13.40;99.90;;;;;;10403926;28;20898;-65
2023/10/23 17:25:11;;;;;;;22.40;12.68;;;13.40;99.90;;;;;;10398705;28;20409;-64
2023/10/23 17:30:12;;;;;;;22.00;12.40;;;11.90;99.90;;;;;;10402808;28;20484;-66
2023/10/23 17:35:13;;;;;;;21.17;12.35;;;13.50;99.90;;;;;;10398003;28;20530;-66
2023/10/23 17:40:15;;;;;;;20.93;11.90;;;13.50;99.90;;;;;;10413778;28;20819;-66
2023/10/23 17:45:15;;;;;;;19.90;11.23;;;13.50;99.90;;;;;;10393308;28;20461;-66
2023/10/23 17:50:16;;;;;;;18.90;10.73;;;13.60;99.90;;;;;;10405018;28;20666;-65
2023/10/23 17:55:16;;;;;;;20.27;10.73;;;13.60;99.90;;;;;;10400612;28;20853;-66
2023/10/23 18:00:18;;;;;;;18.67;10.90;;;13.60;99.90;;;;;;10401231;28;20486;-63
2023/10/23 18:05:19;;;;;;;15.40;10.13;;;13.70;99.90;;;;;;10400332;28;20712;-65
2023/10/23 18:10:19;;;;;;;17.00;9.77;;;13.70;99.90;;;;;;10397110;28;20411;-64
2023/10/23 18:15:22;;;;;;;15.93;9.20;;;13.80;99.90;;;;;;10397948;28;20395;-64
2023/10/23 18:20:22;;;;;;;16.52;9.68;;;13.70;99.90;;;;;;10397094;28;20406;-64
2023/10/23 18:25:23;;;;;;;15.77;9.00;;;13.70;99.90;;;;;;10389726;28;20421;-65
2023/10/23 18:30:25;;;;;;;15.10;8.67;;;13.70;99.90;;;;;;10400452;28;20407;-63
2023/10/23 18:35:26;;;;;;;14.47;8.87;;;13.70;99.90;;;;;;10398670;28;20402;-65
2023/10/23 18:40:26;;;;;;;15.88;8.68;;;13.70;99.90;;;;;;10400275;28;20406;-65
2023/10/23 18:45:27;;;;;;;14.93;8.70;;;13.70;99.90;;;;;;10409322;28;20764;-65
2023/10/23 18:50:28;;;;;;;13.88;8.32;;;13.70;99.90;;;;;;10398236;28;20450;-65
2023/10/23 18:55:28;;;;;;;14.90;8.67;;;13.70;99.90;;;;;;10409080;28;20822;-64
2023/10/23 19:00:29;;;;;;;15.10;8.53;;;13.70;99.90;;;;;;10407192;28;20401;-65
2023/10/23 19:05:35;;;;;;;15.40;8.30;;;13.70;99.90;;;;;;10404957;28;20414;-64
2023/10/23 19:10:38;;;;;;;14.27;8.00;;;13.70;99.90;;;;;;10399572;28;20475;-65
2023/10/23 19:15:38;;;;;;;13.63;7.68;;;13.70;99.90;;;;;;10417107;28;20434;-64
2023/10/23 19:20:39;;;;;;;14.10;8.13;;;14.30;99.90;;;;;;10402598;28;21449;-65
2023/10/23 19:25:39;;;;;;;14.07;7.57;;;13.70;99.90;;;;;;10408090;28;20414;-65
2023/10/23 19:30:40;;;;;;;13.70;7.53;;;13.70;99.90;;;;;;10420522;28;20488;-64
2023/10/23 19:35:40;;;;;;;11.97;7.53;;;13.70;99.90;;;;;;10403990;28;20417;-65
2023/10/23 19:40:46;;;;;;;13.30;7.23;;;13.70;99.90;;;;;;10404838;28;20453;-63
2023/10/23 19:45:47;;;;;;;12.03;7.07;;;13.70;99.90;;;;;;10404502;28;20817;-64
2023/10/23 19:50:47;;;;;;;12.00;6.90;;;13.70;99.90;;;;;;10409183;28;20413;-65
2023/10/23 19:55:48;;;;;;;11.93;7.00;;;13.70;99.90;;;;;;10402185;28;20403;-64
2023/10/23 20:00:49;;;;;;;11.73;6.70;;;13.70;99.90;;;;;;10403514;28;20411;-65
2023/10/23 20:05:52;;;;;;;10.67;6.80;;;13.70;99.90;;;;;;10400311;28;20547;-65
2023/10/23 20:10:53;;;;;;;11.73;6.90;;;13.70;99.90;;;;;;10402245;28;20399;-65
2023/10/23 20:15:59;;;;;;;10.38;6.45;;;13.70;99.90;;;;;;10405908;28;20387;-64
2023/10/23 20:21:01;;;;;;;11.13;6.88;;;13.70;99.90;;;;;;10404477;28;20410;-64
2023/10/23 20:26:10;;;;;;;11.07;6.80;;;13.70;99.90;;;;;;10404139;28;20405;-64
2023/10/23 20:31:17;;;;;;;10.27;6.30;;;13.70;99.90;;;;;;10401766;28;20419;-64
2023/10/23 20:36:19;;;;;;;11.15;6.75;;;13.70;99.90;;;;;;10429849;28;20727;-65
2023/10/23 20:41:19;;;;;;;11.47;6.40;;;13.70;99.90;;;;;;10408898;28;20419;-64
2023/10/23 20:46:20;;;;;;;10.65;6.28;;;13.70;99.90;;;;;;10401191;28;20419;-65
2023/10/23 20:51:20;;;;;;;11.17;6.30;;;13.70;99.90;;;;;;10404705;28;20805;-65
2023/10/23 20:56:21;;;;;;;8.97;6.00;;;13.70;99.90;;;;;;10396957;28;21163;-65
2023/10/23 21:01:21;;;;;;;10.60;7.00;;;13.70;99.90;;;;;;10405591;28;20405;-64
2023/10/23 21:06:24;;;;;;;10.50;6.18;;;13.70;99.90;;;;;;10402529;28;21205;-64
2023/10/23 21:11:26;;;;;;;10.90;6.35;;;13.70;99.90;;;;;;10402738;28;20895;-64
2023/10/23 21:16:26;;;;;;;10.48;6.25;;;13.70;99.90;;;;;;10401969;28;20474;-64
2023/10/23 21:21:28;;;;;;;9.53;6.03;;;13.90;99.90;;;;;;10400098;28;21112;-63
2023/10/23 21:26:30;;;;;;;10.23;6.10;;;13.70;99.90;;;;;;10396711;28;20417;-65
2023/10/23 21:31:30;;;;;;;10.57;6.63;;;13.90;99.90;;;;;;10408039;28;20419;-64
2023/10/23 21:36:31;;;;;;;10.07;6.00;;;13.70;99.90;;;;;;10403810;28;20418;-65
2023/10/23 21:41:31;;;;;;;9.93;6.13;;;13.80;99.90;;;;;;10404394;28;20445;-65
2023/10/23 21:46:32;;;;;;;10.23;6.00;;;13.80;99.90;;;;;;10410129;28;20420;-64
2023/10/23 21:51:33;;;;;;;10.37;6.40;;;13.70;99.90;;;;;;10399756;28;20932;-65
2023/10/23 21:56:34;;;;;;;10.18;6.28;;;13.80;99.90;;;;;;10401416;28;20791;-64
2023/10/23 22:01:35;;;;;;;10.32;6.15;;;13.70;99.90;;;;;;10400803;28;20420;-64
2023/10/23 22:06:36;;;;;;;10.23;6.33;;;13.70;99.90;;;;;;10400279;28;20433;-65
2023/10/23 22:11:37;;;;;;;9.50;6.00;;;13.70;99.90;;;;;;10393570;28;21459;-63
2023/10/23 22:16:37;;;;;;;10.87;6.60;;;13.70;99.90;;;;;;10420198;28;20417;-64
2023/10/23 22:21:38;;;;;;;9.95;6.05;;;13.70;99.90;;;;;;10401848;28;20691;-65
2023/10/23 22:26:38;;;;;;;10.67;6.10;;;13.70;99.90;;;;;;10402235;28;20893;-65
2023/10/23 22:31:39;;;;;;;9.47;6.10;;;13.70;99.90;;;;;;10401707;28;20924;-63
2023/10/23 22:36:39;;;;;;;10.13;6.25;;;13.70;99.90;;;;;;10430986;28;20489;-65
2023/10/23 22:41:40;;;;;;;11.60;7.00;;;13.70;99.90;;;;;;10413052;28;20435;-64
2023/10/23 22:46:41;;;;;;;8.53;5.97;;;13.70;99.90;;;;;;10411660;28;20644;-63
2023/10/23 22:51:41;;;;;;;9.93;6.40;;;13.80;99.90;;;;;;10401616;28;20411;-63
2023/10/23 22:56:45;;;;;;;9.25;6.10;;;13.70;99.90;;;;;;10412431;28;20688;-64
2023/10/23 23:01:47;;;;;;;8.40;5.70;;;13.70;99.90;;;;;;10410943;28;20419;-64
2023/10/23 23:06:51;;;;;;;9.43;6.13;;;13.70;99.90;;;;;;10411229;28;20402;-64
2023/10/23 23:11:52;;;;;;;8.80;5.85;;;13.70;99.90;;;;;;10408163;28;20428;-64
2023/10/23 23:16:57;;;;;;;9.83;6.00;;;13.70;99.90;;;;;;10415702;28;20405;-65
2023/10/23 23:22:07;;;;;;;8.90;5.82;;;13.70;99.90;;;;;;10409144;28;20410;-64
2023/10/23 23:27:07;;;;;;;7.70;5.40;;;13.70;99.90;;;;;;10415825;28;20434;-65
2023/10/23 23:32:08;;;;;;;8.48;5.72;;;13.70;99.90;;;;;;10408807;28;20502;-63
2023/10/23 23:37:08;;;;;;;8.57;5.30;;;13.70;99.90;;;;;;10417997;28;20445;-64
2023/10/23 23:42:09;;;;;;;7.50;5.40;;;13.70;99.90;;;;;;10425560;28;20430;-64
2023/10/23 23:47:09;;;;;;;10.43;5.78;;;13.70;99.90;;;;;;10429276;28;20501;-64
2023/10/23 23:52:10;;;;;;;8.43;5.53;;;13.70;99.90;;;;;;10430740;28;20804;-64
2023/10/23 23:57:11;;;;;;;8.73;5.70;;;13.80;99.90;;;;;;10412116;28;20735;-65
